Carolina, Mississippi
Current Conditions -  °F | °C
As of 2:53 PM on Thursday 18 Dec 2014 (Local Time) from KTUP Reporting Station
Overcast Overcast  
Wind Chill: 47°   Ceiling: 3300
Heat Index: 47°   Visibility: 10mi
Dew Point: 34°   Wind: 3mph
Humidity: 61%   Direction: 70°ENE
Pressure: 30.17"   Gusts: NA
Location:  34.0719°N, 88.6162°W
Report Text: KTUP 182053Z AUTO 07003KT 10SM BKN033 OVC046 08/01 A3017 RMK AO2 SLP216 T00830011 56017
Loading
Personal Weather Stations






























Interactive Weather Map New forecast layout! Learn more

10-Day Weather Forecast

Advertisements
Track Severe Weather on mobile